createdAt,value
2022-11-29T00:00:50.095Z,68.39
2022-11-29T00:03:21.107Z,68.91
2022-11-29T00:05:48.371Z,68.59
2022-11-29T00:08:15.312Z,68.49
2022-11-29T00:10:42.450Z,67.94
2022-11-29T00:13:09.530Z,68.32
2022-11-29T00:15:39.219Z,68.60
2022-11-29T00:18:07.141Z,68.61
2022-11-29T00:20:34.882Z,68.49
2022-11-29T00:23:02.237Z,68.37
2022-11-29T00:25:29.463Z,68.34
2022-11-29T00:27:56.471Z,68.12
2022-11-29T00:30:23.829Z,68.67
2022-11-29T00:32:52.233Z,68.57
2022-11-29T00:35:19.499Z,68.31
2022-11-29T00:37:46.247Z,68.56
2022-11-29T00:40:13.476Z,68.37
2022-11-29T00:42:40.357Z,68.49
2022-11-29T00:45:08.485Z,68.22
2022-11-29T00:47:35.433Z,67.84
2022-11-29T00:50:04.767Z,67.93
2022-11-29T00:52:31.875Z,68.45
2022-11-29T00:54:59.185Z,67.92
2022-11-29T00:57:26.075Z,68.36
2022-11-29T00:59:53.216Z,67.67
2022-11-29T01:02:20.144Z,68.54
2022-11-29T01:04:47.522Z,68.59
2022-11-29T01:07:16.015Z,69.00
2022-11-29T01:09:43.471Z,68.50
2022-11-29T01:12:10.482Z,68.73
2022-11-29T01:14:37.944Z,68.19
2022-11-29T01:17:04.847Z,68.43
2022-11-29T01:19:32.243Z,68.25
2022-11-29T01:21:59.310Z,68.71
2022-11-29T01:24:29.718Z,68.75
2022-11-29T01:26:56.695Z,68.09
2022-11-29T01:29:23.893Z,68.29
2022-11-29T01:31:50.849Z,68.45
2022-11-29T01:34:18.235Z,68.60
2022-11-29T01:36:45.311Z,68.27
2022-11-29T01:39:12.466Z,68.85
2022-11-29T01:41:40.714Z,68.06
2022-11-29T01:44:46.851Z,68.34
2022-11-29T01:47:13.987Z,68.51
2022-11-29T01:49:44.120Z,68.53
2022-11-29T01:52:15.084Z,68.79
2022-11-29T01:54:46.332Z,68.42
2022-11-29T01:57:15.390Z,68.86
2022-11-29T01:59:45.701Z,68.81
2022-11-29T02:02:15.181Z,68.21
2022-11-29T02:04:45.463Z,68.37
2022-11-29T02:07:12.899Z,68.54
2022-11-29T02:09:40.143Z,68.59
2022-11-29T02:12:21.348Z,68.49
2022-11-29T02:15:05.415Z,67.87
2022-11-29T02:17:43.488Z,67.74
2022-11-29T02:21:03.443Z,68.07
2022-11-29T02:23:51.254Z,67.57
2022-11-29T02:26:34.457Z,67.57
2022-11-29T02:29:31.280Z,67.92
2022-11-29T02:32:34.262Z,67.68
2022-11-29T02:35:18.116Z,67.68
2022-11-29T02:38:06.389Z,67.50
2022-11-29T02:40:55.552Z,67.70
2022-11-29T02:43:57.852Z,67.51
2022-11-29T02:46:48.214Z,68.26
2022-11-29T02:49:26.032Z,68.14
2022-11-29T02:51:59.534Z,67.94
2022-11-29T02:54:34.845Z,67.49
2022-11-29T02:57:07.253Z,68.20
2022-11-29T02:59:45.603Z,67.60
2022-11-29T03:02:21.568Z,67.46
2022-11-29T03:04:53.780Z,67.68
2022-11-29T03:07:30.320Z,67.83
2022-11-29T03:10:03.601Z,67.98
2022-11-29T03:12:38.353Z,67.76
2022-11-29T03:15:19.225Z,67.68
2022-11-29T03:18:08.007Z,68.03
2022-11-29T03:20:38.448Z,67.92
2022-11-29T03:23:15.099Z,68.09
2022-11-29T03:25:46.228Z,67.84
2022-11-29T03:28:18.761Z,68.10
2022-11-29T03:30:55.598Z,68.39
2022-11-29T03:33:30.808Z,68.26
2022-11-29T03:36:05.787Z,68.08
2022-11-29T03:38:40.054Z,68.07
2022-11-29T03:41:17.825Z,68.28
2022-11-29T03:43:50.400Z,68.30
2022-11-29T03:46:25.341Z,67.98
2022-11-29T03:48:59.666Z,68.11
2022-11-29T03:51:38.844Z,68.60
2022-11-29T03:54:12.853Z,68.35
2022-11-29T03:56:40.959Z,68.01
2022-11-29T03:59:21.167Z,68.49
2022-11-29T04:02:16.718Z,68.29
2022-11-29T04:05:09.291Z,68.64
2022-11-29T04:07:51.370Z,68.56
2022-11-29T04:10:37.370Z,69.05
2022-11-29T04:13:29.230Z,68.67
2022-11-29T04:16:25.265Z,68.59
2022-11-29T04:19:20.757Z,68.08
2022-11-29T04:22:10.677Z,68.16
2022-11-29T04:25:32.149Z,68.20
2022-11-29T04:28:16.082Z,67.90
2022-11-29T04:30:59.786Z,67.74
2022-11-29T04:33:58.428Z,68.16
2022-11-29T04:37:01.510Z,68.53
2022-11-29T04:39:48.980Z,68.18
2022-11-29T04:42:46.624Z,68.29
2022-11-29T04:45:53.513Z,68.45
2022-11-29T04:48:39.167Z,68.46
2022-11-29T04:51:17.290Z,68.30
2022-11-29T04:53:58.328Z,68.45
2022-11-29T04:56:32.860Z,68.43
2022-11-29T04:59:07.610Z,68.16
2022-11-29T05:01:45.906Z,68.41
2022-11-29T05:04:20.935Z,68.18
2022-11-29T05:06:58.692Z,68.51
2022-11-29T05:09:38.387Z,68.28
2022-11-29T05:12:14.401Z,68.57
2022-11-29T05:15:00.945Z,68.91
2022-11-29T05:17:36.705Z,68.48
2022-11-29T05:20:21.435Z,68.13
2022-11-29T05:23:00.147Z,68.03
2022-11-29T05:25:35.325Z,68.59
2022-11-29T05:28:10.387Z,68.23
2022-11-29T05:31:06.489Z,68.22
2022-11-29T05:33:49.756Z,68.21
2022-11-29T05:36:27.259Z,68.23
2022-11-29T05:39:12.328Z,68.11
2022-11-29T05:41:57.608Z,68.27
2022-11-29T05:44:32.522Z,68.21
2022-11-29T05:47:02.573Z,68.46
2022-11-29T05:49:40.212Z,68.31
2022-11-29T05:52:21.875Z,68.06
2022-11-29T05:55:02.452Z,68.23
2022-11-29T05:57:38.747Z,67.83
2022-11-29T06:00:10.658Z,68.47
2022-11-29T06:02:52.201Z,68.36
2022-11-29T06:05:28.867Z,68.28
2022-11-29T06:08:02.691Z,68.25
2022-11-29T06:10:33.864Z,68.54
2022-11-29T06:13:11.408Z,67.83
2022-11-29T06:16:02.781Z,68.08
2022-11-29T06:18:54.512Z,68.40
2022-11-29T06:21:30.689Z,68.21
2022-11-29T06:24:25.930Z,67.93
2022-11-29T06:27:25.616Z,68.06
2022-11-29T06:30:02.227Z,67.82
2022-11-29T06:32:34.501Z,67.77
2022-11-29T06:35:08.079Z,68.04
2022-11-29T06:37:39.146Z,68.03
2022-11-29T06:40:10.828Z,67.64
2022-11-29T06:42:37.793Z,67.35
2022-11-29T06:45:06.191Z,67.53
2022-11-29T06:47:40.949Z,67.21
2022-11-29T06:50:25.208Z,67.65
2022-11-29T06:52:59.323Z,67.38
2022-11-29T06:55:38.192Z,67.58
2022-11-29T06:58:17.208Z,67.62
2022-11-29T07:00:56.504Z,67.62
2022-11-29T07:03:56.269Z,67.25
2022-11-29T07:06:27.826Z,67.75
2022-11-29T08:29:13.144Z,64.80
2022-11-29T08:31:40.460Z,64.80
2022-11-29T08:34:08.278Z,65.38
2022-11-29T08:36:35.477Z,65.59
2022-11-29T08:39:08.978Z,65.53
2022-11-29T08:41:36.923Z,63.25
2022-11-29T08:44:05.024Z,63.46
2022-11-29T08:46:52.336Z,63.26
2022-11-29T08:49:19.285Z,62.68
2022-11-29T08:51:46.552Z,63.16
2022-11-29T08:54:13.510Z,62.63
2022-11-29T08:59:27.567Z,62.53
2022-11-29T09:01:56.195Z,62.29
2022-11-29T09:04:23.263Z,61.32
2022-11-29T09:06:50.655Z,60.95
2022-11-29T09:09:17.789Z,61.41
2022-11-29T09:11:49.245Z,60.28
2022-11-29T09:14:17.779Z,59.64
2022-11-29T09:16:45.139Z,60.07
2022-11-29T09:19:14.768Z,60.46
2022-11-29T09:21:41.959Z,60.49
2022-11-29T09:24:10.390Z,60.75
2022-11-29T09:26:38.168Z,60.61
2022-11-29T09:29:06.650Z,60.68
2022-11-29T09:31:35.034Z,60.56
2022-11-29T09:34:02.388Z,59.92
2022-11-29T09:36:31.367Z,59.75
2022-11-29T09:38:59.555Z,59.72
2022-11-29T09:41:48.647Z,59.63
2022-11-29T09:44:19.493Z,59.06
2022-11-29T09:46:58.855Z,59.21
2022-11-29T09:49:41.087Z,58.15
2022-11-29T09:52:22.412Z,57.61
2022-11-29T09:54:56.965Z,58.81
2022-11-29T09:57:26.984Z,58.72
2022-11-29T09:59:58.953Z,57.58
2022-11-29T10:02:36.104Z,56.72
2022-11-29T10:05:10.466Z,56.36
2022-11-29T10:07:46.278Z,56.83
2022-11-29T10:10:18.426Z,56.32
2022-11-29T10:12:50.480Z,56.79
2022-11-29T10:15:21.578Z,56.36
2022-11-29T10:17:54.621Z,54.66
2022-11-29T10:20:24.634Z,55.64
2022-11-29T10:22:57.402Z,55.83
2022-11-29T10:25:26.235Z,55.07
2022-11-29T10:27:53.941Z,54.35
2022-11-29T10:30:21.292Z,55.17
2022-11-29T10:32:56.128Z,52.12
2022-11-29T10:35:23.399Z,53.17
2022-11-29T10:38:28.660Z,53.74
2022-11-29T10:40:46.952Z,55.14
2022-11-29T10:43:14.213Z,53.98
2022-11-29T10:45:50.031Z,53.78
2022-11-29T10:48:20.042Z,54.04
2022-11-29T10:50:49.272Z,53.56
2022-11-29T10:53:22.677Z,54.42
2022-11-29T10:55:54.915Z,53.54
2022-11-29T10:58:28.308Z,53.40
2022-11-29T11:00:58.337Z,53.06
2022-11-29T11:03:33.551Z,52.56
2022-11-29T11:06:04.304Z,53.11
2022-11-29T11:08:34.329Z,52.10
2022-11-29T11:11:03.256Z,52.64
2022-11-29T11:13:32.206Z,52.14
2022-11-29T11:16:09.827Z,52.17
2022-11-29T11:18:37.889Z,51.91
2022-11-29T11:21:09.436Z,50.84
2022-11-29T11:23:45.392Z,52.01
2022-11-29T11:26:14.629Z,52.22
2022-11-29T11:28:48.500Z,52.08
2022-11-29T11:31:16.387Z,51.69
2022-11-29T11:33:45.670Z,49.93
2022-11-29T11:36:15.343Z,50.19
2022-11-29T11:38:52.042Z,51.02
2022-11-29T11:41:23.505Z,50.56
2022-11-29T11:43:56.354Z,50.50
2022-11-29T11:46:23.831Z,49.57
2022-11-29T11:48:51.702Z,50.58
2022-11-29T11:51:23.250Z,49.90
2022-11-29T11:53:55.680Z,50.45
2022-11-29T11:56:24.223Z,49.73
2022-11-29T11:58:54.189Z,49.97
2022-11-29T12:01:28.684Z,50.34
2022-11-29T12:04:02.477Z,50.70
2022-11-29T12:06:37.274Z,50.38
2022-11-29T12:09:16.476Z,50.88
2022-11-29T12:11:49.662Z,50.86
2022-11-29T12:14:25.651Z,50.83
2022-11-29T12:17:15.457Z,51.21
2022-11-29T12:19:58.915Z,51.17
2022-11-29T12:22:30.649Z,51.29
2022-11-29T12:25:05.495Z,50.99
2022-11-29T12:27:32.377Z,50.04
2022-11-29T12:30:00.085Z,51.00
2022-11-29T12:32:51.712Z,51.31
2022-11-29T12:35:39.348Z,52.02
2022-11-29T12:38:15.878Z,51.49
2022-11-29T12:40:53.441Z,52.07
2022-11-29T12:43:30.505Z,51.93
2022-11-29T12:46:04.686Z,51.98
2022-11-29T12:48:41.036Z,52.06
2022-11-29T12:51:19.822Z,51.69
2022-11-29T12:54:02.306Z,51.96
2022-11-29T12:56:38.515Z,52.39
2022-11-29T12:59:22.188Z,52.23
2022-11-29T13:02:03.836Z,52.10
2022-11-29T13:04:39.006Z,52.14
2022-11-29T13:07:14.733Z,51.76
2022-11-29T13:09:56.322Z,52.11
2022-11-29T13:12:33.124Z,51.65
2022-11-29T13:15:05.339Z,51.76
2022-11-29T13:17:39.633Z,52.09
2022-11-29T13:20:20.885Z,52.35
2022-11-29T13:22:56.137Z,52.08
2022-11-29T13:25:27.558Z,52.70
2022-11-29T13:28:00.138Z,52.62
2022-11-29T13:30:27.344Z,53.09
2022-11-29T13:33:04.218Z,52.86
2022-11-29T13:35:38.807Z,53.45
2022-11-29T13:38:18.585Z,53.58
2022-11-29T13:40:57.046Z,54.01
2022-11-29T13:43:36.686Z,53.87
2022-11-29T13:46:16.435Z,53.91
2022-11-29T13:48:49.952Z,54.43
2022-11-29T13:51:28.833Z,54.03
2022-11-29T13:53:57.921Z,54.89
2022-11-29T13:56:33.461Z,54.10
2022-11-29T13:59:06.888Z,54.16
2022-11-29T14:01:44.178Z,54.46
2022-11-29T14:04:26.509Z,55.02
2022-11-29T14:07:04.176Z,55.51
2022-11-29T14:09:41.097Z,55.83
2022-11-29T14:12:26.859Z,56.28
2022-11-29T14:15:00.297Z,57.01
2022-11-29T14:17:48.651Z,57.26
2022-11-29T14:20:45.773Z,57.92
2022-11-29T14:23:29.619Z,57.83
2022-11-29T14:26:28.116Z,58.08
2022-11-29T14:28:55.861Z,58.77
2022-11-29T14:31:55.508Z,59.16
2022-11-29T14:34:42.535Z,59.06
2022-11-29T14:37:29.934Z,58.70
2022-11-29T14:39:59.907Z,58.88
2022-11-29T14:42:28.403Z,59.13
2022-11-29T14:45:06.289Z,59.07
2022-11-29T14:47:37.166Z,59.45
2022-11-29T14:50:09.211Z,60.00
2022-11-29T14:52:39.069Z,59.79
2022-11-29T14:55:25.645Z,60.40
2022-11-29T14:57:55.069Z,60.73
2022-11-29T15:00:23.599Z,60.21
2022-11-29T15:02:56.413Z,61.19
2022-11-29T15:05:30.893Z,61.29
2022-11-29T15:08:09.090Z,60.70
2022-11-29T15:10:40.149Z,61.01
2022-11-29T15:13:12.403Z,61.81
2022-11-29T15:15:58.458Z,62.08
2022-11-29T15:18:51.169Z,62.59
2022-11-29T15:21:31.507Z,62.81
2022-11-29T15:24:03.116Z,62.30
2022-11-29T15:26:31.026Z,62.49
2022-11-29T15:29:13.384Z,62.77
2022-11-29T15:31:41.512Z,63.64
2022-11-29T15:34:20.319Z,63.38
2022-11-29T15:36:47.811Z,63.76
2022-11-29T15:39:30.570Z,63.89
2022-11-29T15:42:02.197Z,64.03
2022-11-29T15:44:32.591Z,63.88
2022-11-29T15:47:16.405Z,64.22
2022-11-29T15:49:45.317Z,64.45
2022-11-29T15:52:20.562Z,64.24
2022-11-29T15:54:52.017Z,64.35
2022-11-29T15:57:24.985Z,64.11
2022-11-29T15:59:55.442Z,64.20
2022-11-29T16:02:25.108Z,64.33
2022-11-29T16:04:57.427Z,64.50
2022-11-29T16:07:27.540Z,64.34
2022-11-29T16:09:59.192Z,64.25
2022-11-29T16:12:26.737Z,64.35
2022-11-29T16:14:56.526Z,64.21
2022-11-29T16:17:25.997Z,64.09
2022-11-29T16:20:05.240Z,64.21
2022-11-29T16:22:32.500Z,64.39
2022-11-29T16:25:07.994Z,64.59
2022-11-29T16:27:35.976Z,64.76
2022-11-29T16:30:07.520Z,65.14
2022-11-29T16:32:38.321Z,65.32
2022-11-29T16:35:12.531Z,65.10
2022-11-29T16:37:46.282Z,65.56
2022-11-29T16:40:24.626Z,66.31
2022-11-29T16:43:08.118Z,65.97
2022-11-29T16:45:37.064Z,66.04
2022-11-29T16:48:28.580Z,66.42
2022-11-29T16:51:25.442Z,66.85
2022-11-29T16:53:53.772Z,66.96
2022-11-29T16:56:24.601Z,66.74
2022-11-29T16:59:25.498Z,66.95
2022-11-29T17:01:41.030Z,66.89
2022-11-29T17:04:09.328Z,66.96
2022-11-29T17:06:38.205Z,67.05
2022-11-29T17:09:05.603Z,66.89
2022-11-29T17:11:32.947Z,66.63
2022-11-29T17:13:59.883Z,66.44
2022-11-29T17:16:27.103Z,66.00
2022-11-29T17:18:54.256Z,66.20
2022-11-29T17:21:24.007Z,65.85
2022-11-29T17:23:53.388Z,66.06
2022-11-29T17:26:21.743Z,66.22
2022-11-29T17:28:50.376Z,65.91
2022-11-29T17:31:20.187Z,65.82
2022-11-29T17:33:48.665Z,66.31
2022-11-29T17:36:19.290Z,66.32
2022-11-29T17:38:46.768Z,66.40
2022-11-29T17:41:16.586Z,66.71
2022-11-29T17:43:43.694Z,67.00
2022-11-29T17:46:13.096Z,66.63
2022-11-29T17:48:40.299Z,67.09
2022-11-29T17:51:28.803Z,67.16
2022-11-29T17:53:54.958Z,67.46
2022-11-29T17:56:24.962Z,67.44
2022-11-29T17:58:53.068Z,67.03
2022-11-29T18:01:21.809Z,66.89
2022-11-29T18:03:51.752Z,66.69
2022-11-29T18:06:20.668Z,66.86
2022-11-29T18:08:50.755Z,66.79
2022-11-29T18:11:21.518Z,66.91
2022-11-29T18:13:50.506Z,66.58
2022-11-29T18:16:19.955Z,66.71
2022-11-29T18:18:47.840Z,66.82
2022-11-29T18:21:19.963Z,66.89
2022-11-29T18:23:50.865Z,67.01
2022-11-29T18:26:20.270Z,67.18
2022-11-29T18:28:47.549Z,66.61
2022-11-29T18:31:18.939Z,66.78
2022-11-29T18:33:48.217Z,66.46
2022-11-29T18:36:17.416Z,66.57
2022-11-29T18:38:45.697Z,66.30
2022-11-29T18:41:15.771Z,66.35
2022-11-29T18:43:43.062Z,66.15
2022-11-29T18:46:11.995Z,65.91
2022-11-29T18:48:41.216Z,66.15
2022-11-29T18:51:10.279Z,65.88
2022-11-29T18:53:38.126Z,65.85
2022-11-29T18:56:07.760Z,65.17
2022-11-29T18:58:34.767Z,65.49
2022-11-29T19:01:07.186Z,66.19
2022-11-29T19:03:35.895Z,66.12
2022-11-29T19:06:07.476Z,65.72
2022-11-29T19:08:34.747Z,65.43
2022-11-29T19:11:04.664Z,65.16
2022-11-29T19:13:31.859Z,64.78
2022-11-29T19:15:59.710Z,64.93
2022-11-29T19:18:26.763Z,64.66
2022-11-29T19:20:53.972Z,64.50
2022-11-29T19:23:22.708Z,64.39
2022-11-29T19:25:50.414Z,64.39
2022-11-29T19:28:18.576Z,64.64
2022-11-29T19:30:54.122Z,64.65
2022-11-29T19:33:21.075Z,64.55
2022-11-29T19:35:48.154Z,64.33
2022-11-29T19:38:15.468Z,64.17
2022-11-29T19:40:44.050Z,64.11
2022-11-29T19:43:11.194Z,63.96
2022-11-29T19:45:39.277Z,63.53
2022-11-29T19:48:06.697Z,63.75
2022-11-29T19:50:33.886Z,63.86
2022-11-29T19:53:00.770Z,63.47
2022-11-29T19:55:27.977Z,63.64
2022-11-29T19:57:56.718Z,63.78
2022-11-29T20:00:23.986Z,63.58
2022-11-29T20:02:51.417Z,63.60
2022-11-29T20:05:18.831Z,63.58
2022-11-29T20:07:45.903Z,63.44
2022-11-29T20:10:13.122Z,63.58
2022-11-29T20:12:40.046Z,63.81
2022-11-29T20:15:09.368Z,63.57
2022-11-29T20:17:36.076Z,63.84
2022-11-29T20:20:04.143Z,64.07
2022-11-29T20:22:30.982Z,63.89
2022-11-29T20:24:58.237Z,63.74
2022-11-29T20:27:25.139Z,63.86
2022-11-29T20:29:52.458Z,64.06
2022-11-29T20:32:22.155Z,64.41
2022-11-29T20:34:50.053Z,64.52
2022-11-29T20:37:30.467Z,64.58
2022-11-29T20:40:00.538Z,64.67
2022-11-29T20:42:44.624Z,64.31
2022-11-29T20:45:13.701Z,64.13
2022-11-29T20:47:49.135Z,64.22
2022-11-29T20:50:22.870Z,64.94
2022-11-29T20:53:01.120Z,64.59
2022-11-29T20:55:28.439Z,64.76
2022-11-29T20:57:55.410Z,64.47
2022-11-29T21:00:22.967Z,64.64
2022-11-29T21:02:51.229Z,64.31
2022-11-29T21:05:18.382Z,64.17
2022-11-29T21:07:45.831Z,64.73
2022-11-29T21:10:16.402Z,64.81
2022-11-29T21:12:45.659Z,64.57
2022-11-29T21:15:14.492Z,64.89
2022-11-29T21:17:42.931Z,64.42
2022-11-29T21:20:18.329Z,64.56
2022-11-29T21:22:52.877Z,64.09
2022-11-29T21:25:24.990Z,64.31
2022-11-29T21:27:54.436Z,64.86
2022-11-29T21:30:24.273Z,65.05
2022-11-29T21:32:52.130Z,65.35
2022-11-29T21:35:23.332Z,65.40
2022-11-29T21:37:54.434Z,64.88
2022-11-29T21:40:21.663Z,64.77
2022-11-29T21:42:48.532Z,64.80
2022-11-29T21:45:16.276Z,64.61
2022-11-29T21:47:44.127Z,63.80
2022-11-29T21:50:12.276Z,64.35
2022-11-29T21:52:40.541Z,65.26
2022-11-29T21:55:08.608Z,64.84
2022-11-29T21:57:35.684Z,64.77
2022-11-29T22:00:03.939Z,64.75
2022-11-29T22:02:30.920Z,64.53
2022-11-29T22:04:58.279Z,64.26
2022-11-29T22:07:25.198Z,64.35
2022-11-29T22:09:53.762Z,64.29
2022-11-29T22:12:33.721Z,64.73
2022-11-29T22:15:01.900Z,64.36
2022-11-29T22:17:28.767Z,64.42
2022-11-29T22:19:55.920Z,64.57
2022-11-29T22:22:25.042Z,64.62
2022-11-29T22:24:55.737Z,63.76
2022-11-29T22:27:22.661Z,64.40
2022-11-29T22:29:50.276Z,64.80
2022-11-29T22:32:17.254Z,64.95
2022-11-29T22:34:44.759Z,65.23
2022-11-29T22:37:12.501Z,65.02
2022-11-29T22:39:39.629Z,65.17
2022-11-29T22:42:07.881Z,65.52
2022-11-29T22:44:35.083Z,66.13
2022-11-29T22:47:02.192Z,65.18
2022-11-29T22:49:30.024Z,65.41
2022-11-29T22:51:56.893Z,65.63
2022-11-29T22:54:24.085Z,65.84
2022-11-29T22:56:52.233Z,65.41
2022-11-29T22:59:20.786Z,65.58
2022-11-29T23:01:47.959Z,66.16
2022-11-29T23:04:15.717Z,65.61
2022-11-29T23:06:43.866Z,65.55
2022-11-29T23:09:16.251Z,65.50
2022-11-29T23:11:46.231Z,65.77
2022-11-29T23:14:13.886Z,65.88
2022-11-29T23:16:42.264Z,65.71
2022-11-29T23:19:10.145Z,65.67
2022-11-29T23:21:38.791Z,65.97
2022-11-29T23:24:06.511Z,66.44
2022-11-29T23:26:39.641Z,66.56
2022-11-29T23:29:08.912Z,66.71
2022-11-29T23:31:35.916Z,66.18
2022-11-29T23:34:04.477Z,66.37
2022-11-29T23:36:31.601Z,66.16
2022-11-29T23:38:58.935Z,66.44
2022-11-29T23:41:25.894Z,66.06
2022-11-29T23:43:53.091Z,66.28
2022-11-29T23:46:21.502Z,66.34
2022-11-29T23:48:49.107Z,66.30
2022-11-29T23:51:18.167Z,65.76
2022-11-29T23:53:46.747Z,65.97
2022-11-29T23:56:15.824Z,65.39
2022-11-29T23:58:43.915Z,65.23
